Ittre, Belgium
Current Conditions -  °F | °C
As of 10:50 AM on Tuesday 21 Oct 2014 (Local Time) from EBCI Reporting Station
Light Rain Light Rain  
Wind Chill: 52°   Ceiling: 1100
Heat Index: 52°   Visibility: 6mi
Dew Point: 50°   Wind: 18mph
Humidity: 94%   Direction: 210°SSW
Pressure: 29.74"   Gusts: NA
Location:  50.64°N, 4.26°E
Report Text: EBCI 210850Z 21016KT 9999 -RA BKN011 BKN030 11/10 Q1007 RERA TEMPO 21020G30KT
Loading
Personal Weather Stations






























Interactive Weather Map
Tropical Storm Tracking
New forecast layout! Learn more

10-Day Weather Forecast

Advertisements
Track Severe Weather on mobile